Time;durP1;ratioP1;P1;durP2;ratioP2;P2;SDS_P1;SDS_P2;PMS_P1;PMS_P2;Temp;Humidity;BMP_temperature;BMP_pressure;BME280_temperature;BME280_humidity;BME280_pressure;Samples;Min_cycle;Max_cycle;Signal;HPM_P1;HPM_P2
2022/08/09 00:02:06;;;;;;;1.30;0.90;;;;;;;;;;5039831;28;20562;-69
2022/08/09 00:04:33;;;;;;;2.03;1.00;;;;;;;;;;5039602;28;20202;-69
2022/08/09 00:06:59;;;;;;;1.73;1.00;;;;;;;;;;5039597;28;20247;-69
2022/08/09 00:09:25;;;;;;;1.20;1.00;;;;;;;;;;5040029;28;20234;-69
2022/08/09 00:11:53;;;;;;;1.48;1.10;;;;;;;;;;5039739;28;20210;-69
2022/08/09 00:14:19;;;;;;;1.88;1.30;;;;;;;;;;5039621;28;20202;-69
2022/08/09 00:16:47;;;;;;;2.85;1.48;;;;;;;;;;5039339;28;20221;-69
2022/08/09 00:19:14;;;;;;;1.75;1.60;;;;;;;;;;5039766;28;20225;-69
2022/08/09 00:21:40;;;;;;;4.47;1.80;;;;;;;;;;5039497;28;20562;-69
2022/08/09 00:24:07;;;;;;;4.05;2.00;;;;;;;;;;5039627;28;20389;-69
2022/08/09 00:26:34;;;;;;;5.38;2.60;;;;;;;;;;5039786;28;20261;-69
2022/08/09 00:29:01;;;;;;;2.85;2.55;;;;;;;;;;5039402;28;20201;-69
2022/08/09 00:31:28;;;;;;;3.50;3.03;;;;;;;;;;5039219;28;20202;-70
2022/08/09 00:33:55;;;;;;;3.60;2.20;;;;;;;;;;5039544;28;20201;-70
2022/08/09 00:36:22;;;;;;;2.10;2.00;;;;;;;;;;5038999;28;20201;-70
2022/08/09 00:38:48;;;;;;;3.42;2.15;;;;;;;;;;5039360;28;20226;-70
2022/08/09 00:41:15;;;;;;;5.40;2.15;;;;;;;;;;5039452;28;20397;-68
2022/08/09 00:43:43;;;;;;;4.10;1.80;;;;;;;;;;5039361;28;20210;-68
2022/08/09 00:46:10;;;;;;;1.92;1.70;;;;;;;;;;5039100;28;20274;-68
2022/08/09 00:48:37;;;;;;;1.60;1.50;;;;;;;;;;5039381;28;20200;-68
2022/08/09 00:51:06;;;;;;;2.65;1.60;;;;;;;;;;5039170;28;20202;-69
2022/08/09 00:53:33;;;;;;;3.17;1.60;;;;;;;;;;5038958;28;20202;-69
2022/08/09 00:55:59;;;;;;;1.77;1.67;;;;;;;;;;5038977;28;20517;-69
2022/08/09 00:58:25;;;;;;;1.50;1.40;;;;;;;;;;5038900;28;20259;-69
2022/08/09 01:00:53;;;;;;;2.63;1.77;;;;;;;;;;5039447;28;20259;-69
2022/08/09 01:03:24;;;;;;;2.58;1.40;;;;;;;;;;5039403;28;20250;-69
2022/08/09 01:05:52;;;;;;;1.50;1.40;;;;;;;;;;5038974;28;20225;-69
2022/08/09 01:08:22;;;;;;;1.75;1.65;;;;;;;;;;5038896;28;20202;-69
2022/08/09 01:10:53;;;;;;;2.80;1.50;;;;;;;;;;5038997;28;20198;-69
2022/08/09 01:13:24;;;;;;;1.95;1.75;;;;;;;;;;5038771;28;20259;-69
2022/08/09 01:15:52;;;;;;;1.85;1.75;;;;;;;;;;5038951;28;20198;-69
2022/08/09 01:18:23;;;;;;;2.38;1.80;;;;;;;;;;5038686;28;20451;-69
2022/08/09 01:20:54;;;;;;;2.45;2.03;;;;;;;;;;5038965;28;20201;-68
2022/08/09 01:23:31;;;;;;;2.80;2.58;;;;;;;;;;5038687;28;20205;-68
2022/08/09 01:26:05;;;;;;;2.38;2.13;;;;;;;;;;5038782;28;20220;-68
2022/08/09 01:28:33;;;;;;;6.60;2.08;;;;;;;;;;5038924;28;20493;-69
2022/08/09 01:31:02;;;;;;;2.72;2.10;;;;;;;;;;5038739;28;20205;-69
2022/08/09 01:33:30;;;;;;;2.47;2.08;;;;;;;;;;5038597;28;20206;-68
2022/08/09 01:35:59;;;;;;;3.83;2.20;;;;;;;;;;5038984;28;20205;-68
2022/08/09 01:38:27;;;;;;;3.60;2.10;;;;;;;;;;5038551;28;20229;-68
2022/08/09 01:40:55;;;;;;;2.88;1.85;;;;;;;;;;5038711;28;20479;-68
2022/08/09 01:43:22;;;;;;;1.80;1.70;;;;;;;;;;5041032;28;20501;-68
2022/08/09 01:45:50;;;;;;;1.85;1.75;;;;;;;;;;5042205;28;20197;-68
2022/08/09 01:48:17;;;;;;;2.28;1.92;;;;;;;;;;5041786;28;20194;-68
2022/08/09 01:50:44;;;;;;;1.63;1.58;;;;;;;;;;5041901;28;20225;-68
2022/08/09 01:53:11;;;;;;;1.88;1.67;;;;;;;;;;5041828;28;20205;-68
2022/08/09 01:55:37;;;;;;;2.72;1.40;;;;;;;;;;5041965;28;20198;-68
2022/08/09 01:58:05;;;;;;;1.95;1.73;;;;;;;;;;5041008;28;20548;-68
2022/08/09 02:00:32;;;;;;;2.05;1.77;;;;;;;;;;5041782;28;20236;-68
2022/08/09 02:03:01;;;;;;;1.70;1.60;;;;;;;;;;5041755;28;20265;-68
2022/08/09 02:05:28;;;;;;;2.35;2.05;;;;;;;;;;5041756;28;20533;-68
2022/08/09 02:07:57;;;;;;;3.00;2.10;;;;;;;;;;5041573;28;20206;-68
2022/08/09 02:10:25;;;;;;;2.22;2.03;;;;;;;;;;5041520;28;20194;-68
2022/08/09 02:12:54;;;;;;;1.73;1.63;;;;;;;;;;5041512;28;20217;-69
2022/08/09 02:15:21;;;;;;;2.75;2.03;;;;;;;;;;5041819;27;20198;-69
2022/08/09 02:17:49;;;;;;;1.40;1.30;;;;;;;;;;5041349;28;20205;-69
2022/08/09 02:20:17;;;;;;;1.80;1.70;;;;;;;;;;5041391;28;20274;-69
2022/08/09 02:22:47;;;;;;;2.10;2.00;;;;;;;;;;5041318;28;20424;-69
2022/08/09 02:25:16;;;;;;;1.90;1.80;;;;;;;;;;5041260;28;20202;-69
2022/08/09 02:27:46;;;;;;;2.97;1.52;;;;;;;;;;5041123;28;20198;-69
2022/08/09 02:30:12;;;;;;;2.08;1.98;;;;;;;;;;5041275;28;20201;-68
2022/08/09 02:32:43;;;;;;;1.98;1.88;;;;;;;;;;5041291;28;20205;-68
2022/08/09 02:35:12;;;;;;;1.83;1.48;;;;;;;;;;5041409;28;20372;-68
2022/08/09 02:37:41;;;;;;;1.73;1.63;;;;;;;;;;5040712;28;20382;-68
2022/08/09 02:40:10;;;;;;;1.80;1.70;;;;;;;;;;5041124;27;20222;-68
2022/08/09 02:42:38;;;;;;;3.40;1.70;;;;;;;;;;5041207;28;20504;-68
2022/08/09 02:45:05;;;;;;;2.25;2.05;;;;;;;;;;5041307;27;20198;-68
2022/08/09 02:47:33;;;;;;;2.40;1.70;;;;;;;;;;5040644;28;20207;-68
2022/08/09 02:50:02;;;;;;;2.67;1.75;;;;;;;;;;5040870;28;20264;-68
2022/08/09 02:52:31;;;;;;;2.22;1.90;;;;;;;;;;5041112;28;20223;-68
2022/08/09 02:55:00;;;;;;;2.28;2.05;;;;;;;;;;5039736;28;20422;-68
2022/08/09 02:57:27;;;;;;;1.63;1.52;;;;;;;;;;5040654;28;20259;-68
2022/08/09 02:59:55;;;;;;;1.95;1.70;;;;;;;;;;5040906;28;20221;-68
2022/08/09 03:02:22;;;;;;;1.58;1.58;;;;;;;;;;5040748;28;20198;-68
2022/08/09 03:04:49;;;;;;;1.92;1.80;;;;;;;;;;5040576;28;20568;-68
2022/08/09 03:07:16;;;;;;;2.00;1.80;;;;;;;;;;5040647;28;20502;-68
2022/08/09 03:09:44;;;;;;;3.28;2.15;;;;;;;;;;5040911;27;20194;-68
2022/08/09 03:12:12;;;;;;;2.38;2.17;;;;;;;;;;5040685;28;20205;-68
2022/08/09 03:14:39;;;;;;;2.15;1.95;;;;;;;;;;5040647;28;20197;-68
2022/08/09 03:17:05;;;;;;;2.08;1.98;;;;;;;;;;5040342;27;20201;-68
2022/08/09 03:19:32;;;;;;;1.80;1.70;;;;;;;;;;5040552;28;20420;-68
2022/08/09 03:21:59;;;;;;;2.95;1.90;;;;;;;;;;5040609;28;20235;-68
2022/08/09 03:24:25;;;;;;;2.45;2.30;;;;;;;;;;5040501;28;20204;-68
2022/08/09 03:26:52;;;;;;;2.17;1.75;;;;;;;;;;5040117;28;20198;-68
2022/08/09 03:29:20;;;;;;;2.17;2.00;;;;;;;;;;5040436;28;20193;-68
2022/08/09 03:31:46;;;;;;;1.92;1.83;;;;;;;;;;5040311;28;20202;-68
2022/08/09 03:34:12;;;;;;;2.28;2.17;;;;;;;;;;5040399;28;20198;-68
2022/08/09 03:36:39;;;;;;;2.35;2.25;;;;;;;;;;5040500;28;20231;-68
2022/08/09 03:39:05;;;;;;;3.03;2.08;;;;;;;;;;5040345;28;20221;-68
2022/08/09 03:41:31;;;;;;;3.10;2.50;;;;;;;;;;5040588;28;20198;-68
2022/08/09 03:43:57;;;;;;;2.10;2.00;;;;;;;;;;5040056;28;20243;-68
2022/08/09 03:46:25;;;;;;;2.40;2.30;;;;;;;;;;5039831;28;20210;-68
2022/08/09 03:48:54;;;;;;;2.08;1.98;;;;;;;;;;5040418;28;20194;-68
2022/08/09 03:51:21;;;;;;;2.25;1.92;;;;;;;;;;5040021;28;20197;-68
2022/08/09 03:53:47;;;;;;;2.97;2.17;;;;;;;;;;5040000;28;20206;-68
2022/08/09 03:56:14;;;;;;;1.80;1.80;;;;;;;;;;5039746;28;20220;-68
2022/08/09 03:58:40;;;;;;;2.50;2.05;;;;;;;;;;5039821;28;20189;-68
2022/08/09 04:01:06;;;;;;;1.92;1.83;;;;;;;;;;5039777;28;20198;-68
2022/08/09 04:03:34;;;;;;;2.00;1.90;;;;;;;;;;5040001;28;20265;-68
2022/08/09 04:06:01;;;;;;;2.25;1.75;;;;;;;;;;5039279;28;20490;-68
2022/08/09 04:08:27;;;;;;;2.20;1.90;;;;;;;;;;5039941;28;20202;-68
2022/08/09 04:10:53;;;;;;;2.10;1.88;;;;;;;;;;5040111;28;20198;-69
2022/08/09 04:13:19;;;;;;;2.17;1.95;;;;;;;;;;5039694;28;20206;-69
2022/08/09 04:15:46;;;;;;;2.08;1.98;;;;;;;;;;5039528;28;20198;-68
2022/08/09 04:18:12;;;;;;;1.90;1.90;;;;;;;;;;5039353;28;20198;-68
2022/08/09 04:20:40;;;;;;;1.70;1.70;;;;;;;;;;5039585;28;20461;-68
2022/08/09 04:23:07;;;;;;;1.92;1.88;;;;;;;;;;5039489;28;20197;-68
2022/08/09 04:25:33;;;;;;;2.00;1.83;;;;;;;;;;5039553;28;20217;-68
2022/08/09 04:27:59;;;;;;;1.80;1.80;;;;;;;;;;5039002;28;20563;-68
2022/08/09 04:30:26;;;;;;;2.95;1.75;;;;;;;;;;5039868;27;20434;-68
2022/08/09 04:32:52;;;;;;;2.38;1.85;;;;;;;;;;5039353;28;20198;-68
2022/08/09 04:35:19;;;;;;;4.03;1.92;;;;;;;;;;5039504;28;20251;-68
2022/08/09 04:37:46;;;;;;;3.53;1.77;;;;;;;;;;5039350;28;20197;-68
2022/08/09 04:40:13;;;;;;;1.52;1.50;;;;;;;;;;5039460;28;20223;-68
2022/08/09 04:42:39;;;;;;;3.63;1.90;;;;;;;;;;5039268;28;20201;-68
2022/08/09 04:45:06;;;;;;;2.22;1.85;;;;;;;;;;5039163;28;20242;-68
2022/08/09 04:47:32;;;;;;;5.07;2.10;;;;;;;;;;5039304;28;20202;-68
2022/08/09 04:49:59;;;;;;;2.03;1.88;;;;;;;;;;5039207;28;20194;-68
2022/08/09 04:52:26;;;;;;;1.92;1.83;;;;;;;;;;5039287;28;20198;-68
2022/08/09 04:54:53;;;;;;;5.47;2.45;;;;;;;;;;5038946;28;20213;-68
2022/08/09 04:57:20;;;;;;;2.92;2.00;;;;;;;;;;5038932;28;20206;-68
2022/08/09 04:59:46;;;;;;;2.30;2.00;;;;;;;;;;5039382;28;20221;-68
2022/08/09 05:02:13;;;;;;;2.13;2.03;;;;;;;;;;5039170;28;20198;-68
2022/08/09 05:04:40;;;;;;;2.63;2.40;;;;;;;;;;5039064;28;20198;-68
2022/08/09 05:07:07;;;;;;;2.28;2.08;;;;;;;;;;5039039;28;20508;-68
2022/08/09 05:09:33;;;;;;;2.13;2.08;;;;;;;;;;5039164;28;20198;-69
2022/08/09 05:12:01;;;;;;;2.42;2.00;;;;;;;;;;5038923;28;20251;-69
2022/08/09 05:14:30;;;;;;;3.03;2.00;;;;;;;;;;5039298;28;20221;-69
2022/08/09 05:16:58;;;;;;;2.95;2.33;;;;;;;;;;5039437;28;20202;-68
2022/08/09 05:19:24;;;;;;;1.90;1.80;;;;;;;;;;5042198;28;20564;-68
2022/08/09 05:21:51;;;;;;;2.50;2.17;;;;;;;;;;5041679;28;20343;-68
2022/08/09 05:24:17;;;;;;;3.38;2.25;;;;;;;;;;5041708;28;20198;-68
2022/08/09 05:26:43;;;;;;;3.03;2.72;;;;;;;;;;5041608;28;20198;-68
2022/08/09 05:29:12;;;;;;;4.00;2.13;;;;;;;;;;5041864;28;20209;-68
2022/08/09 05:31:38;;;;;;;2.13;2.03;;;;;;;;;;5041794;28;20205;-68
2022/08/09 05:34:04;;;;;;;4.53;2.72;;;;;;;;;;5041614;28;20242;-68
2022/08/09 05:36:30;;;;;;;2.40;2.30;;;;;;;;;;5041281;28;20198;-68
2022/08/09 05:38:56;;;;;;;6.30;2.78;;;;;;;;;;5041405;28;20235;-68
2022/08/09 05:41:23;;;;;;;5.25;2.97;;;;;;;;;;5041626;28;20228;-68
2022/08/09 05:43:49;;;;;;;11.60;3.03;;;;;;;;;;5041494;28;20198;-68
2022/08/09 05:46:17;;;;;;;3.38;3.17;;;;;;;;;;5041308;28;20198;-69
2022/08/09 05:48:43;;;;;;;3.50;3.20;;;;;;;;;;5041606;28;20520;-69
2022/08/09 05:51:09;;;;;;;3.20;2.85;;;;;;;;;;5041477;28;20198;-69
2022/08/09 05:53:35;;;;;;;3.00;2.75;;;;;;;;;;5041106;28;20533;-69
2022/08/09 05:56:02;;;;;;;3.20;2.90;;;;;;;;;;5041309;28;20527;-69
2022/08/09 05:58:28;;;;;;;9.77;2.90;;;;;;;;;;5041322;28;20505;-69
2022/08/09 06:00:54;;;;;;;2.88;2.60;;;;;;;;;;5041139;28;20232;-69
2022/08/09 06:03:22;;;;;;;7.53;3.50;;;;;;;;;;5041019;28;20202;-69
2022/08/09 06:05:48;;;;;;;3.70;3.40;;;;;;;;;;5041226;28;20222;-69
2022/08/09 06:08:16;;;;;;;3.22;2.85;;;;;;;;;;5040915;28;20198;-69
2022/08/09 06:10:43;;;;;;;5.32;2.60;;;;;;;;;;5041507;27;20247;-69
2022/08/09 06:13:10;;;;;;;6.43;3.05;;;;;;;;;;5041184;28;20198;-69
2022/08/09 06:15:36;;;;;;;2.90;2.80;;;;;;;;;;5041547;28;20221;-69
2022/08/09 06:18:03;;;;;;;2.95;2.75;;;;;;;;;;5041266;28;20204;-69
2022/08/09 06:20:31;;;;;;;2.80;2.60;;;;;;;;;;5041498;28;20218;-69
2022/08/09 06:22:57;;;;;;;6.32;3.03;;;;;;;;;;5041704;28;20197;-70
2022/08/09 06:25:24;;;;;;;2.85;2.65;;;;;;;;;;5041248;28;20201;-69
2022/08/09 06:27:50;;;;;;;3.30;2.83;;;;;;;;;;5041149;28;20198;-61
2022/08/09 06:30:16;;;;;;;4.30;2.95;;;;;;;;;;5041346;28;20241;-61
2022/08/09 06:32:43;;;;;;;2.50;2.30;;;;;;;;;;5041162;28;20388;-60
2022/08/09 06:35:09;;;;;;;2.80;2.55;;;;;;;;;;5041189;28;20234;-61
2022/08/09 06:37:37;;;;;;;4.28;2.78;;;;;;;;;;5041340;28;20202;-61
2022/08/09 06:40:04;;;;;;;2.47;2.38;;;;;;;;;;5041267;28;20218;-61
2022/08/09 06:42:31;;;;;;;3.55;2.67;;;;;;;;;;5041436;28;20201;-61
2022/08/09 06:44:57;;;;;;;5.00;2.65;;;;;;;;;;5041192;28;20239;-61
2022/08/09 06:47:24;;;;;;;3.35;2.67;;;;;;;;;;5040810;28;20198;-61
2022/08/09 06:49:50;;;;;;;4.85;2.80;;;;;;;;;;5041133;28;20239;-60
2022/08/09 06:52:16;;;;;;;2.47;2.30;;;;;;;;;;5041002;28;20198;-59
2022/08/09 06:54:44;;;;;;;2.03;1.85;;;;;;;;;;5041194;28;20213;-62
2022/08/09 06:57:11;;;;;;;2.42;2.22;;;;;;;;;;5040846;28;20201;-59
2022/08/09 06:59:37;;;;;;;2.35;2.25;;;;;;;;;;5040799;28;20198;-59
2022/08/09 07:02:03;;;;;;;3.70;3.30;;;;;;;;;;5040820;28;20198;-59
2022/08/09 07:04:30;;;;;;;5.18;2.55;;;;;;;;;;5040678;28;20213;-59
2022/08/09 07:06:56;;;;;;;6.93;2.63;;;;;;;;;;5040617;28;20219;-59
2022/08/09 07:09:22;;;;;;;2.08;1.88;;;;;;;;;;5040927;28;20201;-59
2022/08/09 07:11:50;;;;;;;2.55;2.35;;;;;;;;;;5040734;28;20529;-59
2022/08/09 07:14:17;;;;;;;3.75;2.25;;;;;;;;;;5040672;28;20518;-58
2022/08/09 07:16:43;;;;;;;2.53;2.38;;;;;;;;;;5040100;28;20222;-59
2022/08/09 07:19:10;;;;;;;6.35;2.38;;;;;;;;;;5040644;28;20205;-59
2022/08/09 07:21:37;;;;;;;5.47;2.42;;;;;;;;;;5040689;28;20225;-59
2022/08/09 07:24:03;;;;;;;2.60;2.40;;;;;;;;;;5040523;28;20197;-59
2022/08/09 07:26:30;;;;;;;4.35;2.45;;;;;;;;;;5031047;27;20210;-60
2022/08/09 07:28:57;;;;;;;2.55;2.40;;;;;;;;;;5028694;28;20221;-60
2022/08/09 07:31:24;;;;;;;2.83;2.25;;;;;;;;;;5034210;28;20448;-60
2022/08/09 07:33:50;;;;;;;3.90;2.40;;;;;;;;;;5034246;28;20509;-60
2022/08/09 07:36:17;;;;;;;2.67;2.33;;;;;;;;;;5034107;28;20486;-60
2022/08/09 07:38:43;;;;;;;8.18;2.53;;;;;;;;;;5034066;28;20210;-60
2022/08/09 07:41:09;;;;;;;3.28;2.35;;;;;;;;;;5033321;28;20229;-60
2022/08/09 07:43:35;;;;;;;2.60;2.17;;;;;;;;;;5034273;28;20209;-60
2022/08/09 07:46:03;;;;;;;4.32;2.55;;;;;;;;;;5065001;27;20548;-59
2022/08/09 07:48:29;;;;;;;4.22;2.55;;;;;;;;;;5138291;27;20213;-62
2022/08/09 07:50:55;;;;;;;3.15;2.30;;;;;;;;;;5138094;27;20240;-61
2022/08/09 07:53:22;;;;;;;7.00;2.45;;;;;;;;;;5137757;27;20439;-61
2022/08/09 07:55:48;;;;;;;4.28;1.98;;;;;;;;;;5137517;27;20233;-61
2022/08/09 07:58:14;;;;;;;2.95;2.22;;;;;;;;;;5137236;27;20206;-62
2022/08/09 08:00:41;;;;;;;4.38;2.08;;;;;;;;;;5137403;27;20226;-61
2022/08/09 08:03:08;;;;;;;4.60;2.67;;;;;;;;;;5137414;27;20262;-61
2022/08/09 08:05:35;;;;;;;5.18;3.60;;;;;;;;;;5137001;27;20228;-61
2022/08/09 08:08:02;;;;;;;5.60;2.17;;;;;;;;;;5136960;27;20206;-61
2022/08/09 08:10:29;;;;;;;1.70;1.60;;;;;;;;;;5137252;27;20202;-61
2022/08/09 08:12:55;;;;;;;7.45;2.00;;;;;;;;;;5137726;27;20217;-61
2022/08/09 08:15:21;;;;;;;1.75;1.65;;;;;;;;;;5137565;27;20517;-62
2022/08/09 08:17:50;;;;;;;2.45;1.90;;;;;;;;;;5137094;27;20430;-62
2022/08/09 08:20:18;;;;;;;6.22;1.63;;;;;;;;;;5137282;27;20223;-62
2022/08/09 08:22:44;;;;;;;4.00;1.27;;;;;;;;;;5098050;27;20213;-62
2022/08/09 08:25:10;;;;;;;2.65;1.88;;;;;;;;;;5033542;28;20212;-63
2022/08/09 08:27:37;;;;;;;3.70;1.70;;;;;;;;;;5033111;28;20221;-61
2022/08/09 08:30:04;;;;;;;1.02;1.02;;;;;;;;;;5033460;28;20530;-63
2022/08/09 08:32:30;;;;;;;4.25;1.70;;;;;;;;;;5033404;28;20209;-62
2022/08/09 08:34:57;;;;;;;2.45;1.60;;;;;;;;;;5033486;28;20221;-61
2022/08/09 08:37:25;;;;;;;1.58;1.42;;;;;;;;;;5032911;28;20209;-62
2022/08/09 08:39:53;;;;;;;2.97;1.38;;;;;;;;;;5033342;28;20209;-62
2022/08/09 08:42:19;;;;;;;2.38;1.55;;;;;;;;;;5033301;28;20579;-62
2022/08/09 08:44:46;;;;;;;2.42;1.00;;;;;;;;;;5033500;28;20233;-62
2022/08/09 08:47:13;;;;;;;2.67;1.42;;;;;;;;;;5032902;28;20210;-62
2022/08/09 08:49:40;;;;;;;2.72;1.88;;;;;;;;;;5033142;28;20224;-62
2022/08/09 08:52:07;;;;;;;4.82;1.80;;;;;;;;;;5033616;28;20209;-61
2022/08/09 08:54:35;;;;;;;4.00;3.08;;;;;;;;;;5036542;28;20224;-62
2022/08/09 08:57:02;;;;;;;0.93;0.93;;;;;;;;;;5135206;27;20262;-62
2022/08/09 08:59:29;;;;;;;4.97;1.20;;;;;;;;;;5141431;27;20213;-61
2022/08/09 09:01:55;;;;;;;1.00;1.00;;;;;;;;;;5052618;27;20236;-62
2022/08/09 09:04:25;;;;;;;2.67;1.05;;;;;;;;;;5036415;28;20213;-61
2022/08/09 09:06:51;;;;;;;2.05;1.20;;;;;;;;;;5035766;28;20209;-61
2022/08/09 09:09:18;;;;;;;2.13;1.17;;;;;;;;;;5036194;28;20538;-61
2022/08/09 09:11:46;;;;;;;2.08;1.40;;;;;;;;;;5036382;28;20209;-61
2022/08/09 09:14:14;;;;;;;4.82;1.50;;;;;;;;;;5036735;28;20482;-61
2022/08/09 09:16:40;;;;;;;3.38;2.42;;;;;;;;;;5036518;28;20542;-61
2022/08/09 09:19:07;;;;;;;10.65;9.05;;;;;;;;;;5036388;28;20205;-61
2022/08/09 09:21:34;;;;;;;12.80;8.10;;;;;;;;;;5036250;28;20226;-61
2022/08/09 09:24:03;;;;;;;1.10;1.10;;;;;;;;;;5130463;27;20245;-61
2022/08/09 09:26:29;;;;;;;1.92;1.83;;;;;;;;;;5140336;27;20217;-61
2022/08/09 09:28:57;;;;;;;5.75;1.20;;;;;;;;;;5140402;27;20521;-61
2022/08/09 09:31:23;;;;;;;6.93;6.32;;;;;;;;;;5140702;27;20205;-61
2022/08/09 09:33:49;;;;;;;4.35;2.85;;;;;;;;;;5140575;27;20443;-61
2022/08/09 09:36:17;;;;;;;3.05;2.83;;;;;;;;;;5139885;27;20219;-61
2022/08/09 09:38:45;;;;;;;3.60;3.30;;;;;;;;;;5140287;27;20205;-61
2022/08/09 09:41:11;;;;;;;2.17;1.40;;;;;;;;;;5140245;27;20413;-61
2022/08/09 09:43:37;;;;;;;2.88;2.67;;;;;;;;;;5140336;27;20206;-62
2022/08/09 09:46:05;;;;;;;2.28;2.08;;;;;;;;;;5140318;27;20392;-62
2022/08/09 09:48:31;;;;;;;7.45;2.00;;;;;;;;;;5140380;27;20214;-61
2022/08/09 09:50:58;;;;;;;4.03;2.13;;;;;;;;;;5139948;27;20971;-61
2022/08/09 09:53:25;;;;;;;2.45;1.27;;;;;;;;;;5139985;27;20238;-61
2022/08/09 09:55:52;;;;;;;4.13;1.60;;;;;;;;;;5140046;27;20205;-62
2022/08/09 09:58:19;;;;;;;3.35;1.20;;;;;;;;;;5139525;27;20218;-61
2022/08/09 10:00:46;;;;;;;2.08;1.33;;;;;;;;;;5139990;27;20446;-63
2022/08/09 10:03:13;;;;;;;3.75;1.20;;;;;;;;;;5139377;27;20216;-61
2022/08/09 10:05:54;;;;;;;1.80;1.10;;;;;;;;;;5139510;27;20221;-62
2022/08/09 10:08:22;;;;;;;5.28;1.65;;;;;;;;;;5139446;27;20284;-62
2022/08/09 10:10:48;;;;;;;3.33;1.23;;;;;;;;;;5139810;27;20536;-63
2022/08/09 10:13:15;;;;;;;1.50;1.40;;;;;;;;;;5139518;27;20522;-63
2022/08/09 10:15:46;;;;;;;5.20;1.40;;;;;;;;;;5139142;27;20444;-63
2022/08/09 10:18:14;;;;;;;2.17;1.30;;;;;;;;;;5139029;27;20206;-63
2022/08/09 10:20:40;;;;;;;3.13;1.40;;;;;;;;;;5139529;27;20209;-64
2022/08/09 10:23:15;;;;;;;1.20;1.20;;;;;;;;;;5083325;27;20209;-63
2022/08/09 10:25:41;;;;;;;1.10;1.10;;;;;;;;;;5034770;28;20221;-63
2022/08/09 10:28:08;;;;;;;4.93;1.35;;;;;;;;;;5034366;28;20209;-63
2022/08/09 10:30:34;;;;;;;0.80;0.80;;;;;;;;;;5034985;28;20212;-63
2022/08/09 10:33:01;;;;;;;2.90;1.20;;;;;;;;;;5034984;28;20533;-63
2022/08/09 10:35:28;;;;;;;3.17;1.23;;;;;;;;;;5034874;28;20555;-63
2022/08/09 10:37:55;;;;;;;1.17;1.08;;;;;;;;;;5034832;28;20251;-63
2022/08/09 10:40:21;;;;;;;1.20;1.10;;;;;;;;;;5035161;28;20382;-63
2022/08/09 10:42:48;;;;;;;1.20;1.10;;;;;;;;;;5034811;28;20549;-62
2022/08/09 10:45:14;;;;;;;4.90;1.35;;;;;;;;;;5034836;28;20209;-63
2022/08/09 10:47:44;;;;;;;1.25;1.10;;;;;;;;;;5034449;28;20391;-63
2022/08/09 10:50:18;;;;;;;1.30;1.20;;;;;;;;;;5025686;28;20208;-63
2022/08/09 10:52:58;;;;;;;2.90;1.17;;;;;;;;;;5025359;28;20283;-63
2022/08/09 10:55:26;;;;;;;2.75;1.05;;;;;;;;;;5027833;28;20209;-63
2022/08/09 10:57:53;;;;;;;2.28;1.08;;;;;;;;;;5034278;28;20201;-63
2022/08/09 11:00:39;;;;;;;3.95;1.08;;;;;;;;;;5034947;28;20217;-63
2022/08/09 11:03:19;;;;;;;2.45;1.00;;;;;;;;;;5034894;28;20225;-63
2022/08/09 11:06:00;;;;;;;2.20;1.15;;;;;;;;;;5138540;27;20226;-63
2022/08/09 11:08:40;;;;;;;2.88;0.90;;;;;;;;;;5137978;27;20209;-63
2022/08/09 11:11:06;;;;;;;1.42;1.20;;;;;;;;;;5059552;27;20244;-64
2022/08/09 11:13:32;;;;;;;1.17;1.17;;;;;;;;;;5034014;28;20247;-63
2022/08/09 11:16:13;;;;;;;1.08;1.08;;;;;;;;;;5032745;28;20210;-63
2022/08/09 11:18:44;;;;;;;2.20;1.00;;;;;;;;;;5034158;28;20216;-63
2022/08/09 11:21:31;;;;;;;1.75;0.85;;;;;;;;;;5034203;28;20211;-63
2022/08/09 11:24:00;;;;;;;4.50;1.00;;;;;;;;;;5034026;28;20213;-63
2022/08/09 11:26:38;;;;;;;0.88;0.88;;;;;;;;;;5033751;28;20540;-63
2022/08/09 11:29:04;;;;;;;2.45;1.10;;;;;;;;;;5034590;28;20439;-63
2022/08/09 11:31:45;;;;;;;1.33;1.05;;;;;;;;;;5034326;28;20667;-64
2022/08/09 11:34:30;;;;;;;3.42;1.15;;;;;;;;;;5034499;28;20214;-63
2022/08/09 11:36:58;;;;;;;2.47;1.25;;;;;;;;;;5033433;28;20209;-63
2022/08/09 11:39:26;;;;;;;1.40;1.10;;;;;;;;;;5033814;28;20521;-63
2022/08/09 11:41:52;;;;;;;1.27;1.10;;;;;;;;;;5082705;27;20263;-63
2022/08/09 11:44:19;;;;;;;2.47;1.00;;;;;;;;;;5138137;27;20206;-63
2022/08/09 11:46:56;;;;;;;3.30;0.82;;;;;;;;;;5137673;27;20206;-63
2022/08/09 11:49:37;;;;;;;1.27;1.15;;;;;;;;;;5138116;27;20213;-63
2022/08/09 11:52:04;;;;;;;3.42;1.00;;;;;;;;;;5137649;27;20246;-63
2022/08/09 11:54:31;;;;;;;1.00;1.00;;;;;;;;;;5137988;27;20221;-63
2022/08/09 11:57:21;;;;;;;4.00;1.00;;;;;;;;;;5039388;27;20213;-61
2022/08/09 11:59:48;;;;;;;1.60;1.02;;;;;;;;;;5033553;28;20291;-62
2022/08/09 12:02:14;;;;;;;1.10;1.00;;;;;;;;;;5033692;28;20251;-62
2022/08/09 12:04:41;;;;;;;2.10;0.75;;;;;;;;;;5033999;28;20384;-63
2022/08/09 12:07:07;;;;;;;2.92;1.00;;;;;;;;;;5047565;27;20228;-63
2022/08/09 12:09:35;;;;;;;0.98;0.90;;;;;;;;;;5137568;27;20213;-62
2022/08/09 12:12:04;;;;;;;2.47;0.80;;;;;;;;;;5050185;27;20247;-63
2022/08/09 12:14:31;;;;;;;0.80;0.80;;;;;;;;;;5033361;28;20209;-63
2022/08/09 12:16:58;;;;;;;1.15;1.13;;;;;;;;;;5033044;28;20343;-61
2022/08/09 12:19:28;;;;;;;2.92;1.13;;;;;;;;;;5033447;28;20246;-62
2022/08/09 12:21:59;;;;;;;3.25;1.13;;;;;;;;;;5064632;27;20449;-62
2022/08/09 12:24:25;;;;;;;1.90;1.00;;;;;;;;;;5033093;28;20524;-62
2022/08/09 12:26:55;;;;;;;2.47;1.10;;;;;;;;;;5107868;27;20198;-63
2022/08/09 12:29:23;;;;;;;3.13;1.20;;;;;;;;;;5137015;27;20205;-62
2022/08/09 12:31:50;;;;;;;1.38;0.88;;;;;;;;;;5137133;27;20548;-62
2022/08/09 12:34:16;;;;;;;1.40;1.30;;;;;;;;;;5089121;27;20426;-63
2022/08/09 12:36:49;;;;;;;0.95;0.93;;;;;;;;;;5032781;28;20438;-63
2022/08/09 12:39:15;;;;;;;1.10;0.95;;;;;;;;;;5033352;28;20438;-63
2022/08/09 12:41:41;;;;;;;2.05;0.77;;;;;;;;;;5033063;28;20282;-62
2022/08/09 12:44:09;;;;;;;2.58;1.08;;;;;;;;;;5032146;28;20221;-62
2022/08/09 12:46:35;;;;;;;1.50;1.15;;;;;;;;;;5032769;28;20632;-63
2022/08/09 12:49:02;;;;;;;2.45;0.93;;;;;;;;;;5033337;28;20445;-63
2022/08/09 12:51:28;;;;;;;2.25;1.00;;;;;;;;;;5134656;28;20549;-61
2022/08/09 12:53:59;;;;;;;0.98;0.90;;;;;;;;;;5136945;28;20214;-61
2022/08/09 12:56:25;;;;;;;5.03;1.30;;;;;;;;;;5136493;27;20206;-61
2022/08/09 12:59:05;;;;;;;0.80;0.60;;;;;;;;;;5136585;28;20206;-61
2022/08/09 13:01:33;;;;;;;0.98;0.98;;;;;;;;;;5136811;28;20380;-61
2022/08/09 13:04:00;;;;;;;1.63;0.70;;;;;;;;;;5137261;28;20235;-61
2022/08/09 13:06:27;;;;;;;0.68;0.68;;;;;;;;;;5136485;28;20222;-61
2022/08/09 13:08:57;;;;;;;1.85;1.05;;;;;;;;;;5136456;28;20213;-61
2022/08/09 13:11:28;;;;;;;0.82;0.80;;;;;;;;;;5136516;28;20513;-61
2022/08/09 13:13:54;;;;;;;0.88;0.88;;;;;;;;;;5136680;27;20366;-62
2022/08/09 13:16:21;;;;;;;0.68;0.68;;;;;;;;;;5136326;28;20527;-61
2022/08/09 13:18:52;;;;;;;2.97;0.90;;;;;;;;;;5136566;28;20269;-70
2022/08/09 13:21:21;;;;;;;1.27;0.90;;;;;;;;;;5136731;27;20305;-69
2022/08/09 13:23:48;;;;;;;2.22;0.73;;;;;;;;;;5051816;28;20376;-70
2022/08/09 13:26:29;;;;;;;1.95;1.00;;;;;;;;;;5032504;28;20498;-70
2022/08/09 13:29:02;;;;;;;2.63;0.75;;;;;;;;;;5032972;28;20213;-70
2022/08/09 13:31:28;;;;;;;0.75;0.75;;;;;;;;;;5032747;28;20209;-69
2022/08/09 13:33:56;;;;;;;2.38;1.05;;;;;;;;;;5032894;28;20205;-69
2022/08/09 13:36:22;;;;;;;1.95;0.80;;;;;;;;;;5032796;28;20221;-70
2022/08/09 13:38:48;;;;;;;0.95;0.90;;;;;;;;;;5043899;28;20217;-70
2022/08/09 13:41:19;;;;;;;6.30;0.98;;;;;;;;;;5038687;28;20485;-71
2022/08/09 13:43:46;;;;;;;1.50;1.08;;;;;;;;;;5039693;27;20312;-70
2022/08/09 13:46:12;;;;;;;1.83;0.63;;;;;;;;;;5038636;28;20198;-70
2022/08/09 13:48:38;;;;;;;1.02;0.70;;;;;;;;;;5038527;28;20290;-70
2022/08/09 13:51:06;;;;;;;0.93;0.60;;;;;;;;;;5038616;28;20418;-70
2022/08/09 13:53:32;;;;;;;3.78;0.73;;;;;;;;;;5038625;28;20210;-70
2022/08/09 13:55:58;;;;;;;1.27;0.88;;;;;;;;;;5038439;27;20213;-70
2022/08/09 13:58:25;;;;;;;2.60;0.70;;;;;;;;;;5039021;27;20209;-69
2022/08/09 14:00:51;;;;;;;2.35;0.80;;;;;;;;;;5038381;28;20229;-70
2022/08/09 14:03:17;;;;;;;0.63;0.63;;;;;;;;;;5038552;28;20229;-70
2022/08/09 14:05:43;;;;;;;1.98;0.70;;;;;;;;;;5038437;28;20545;-69
2022/08/09 14:08:11;;;;;;;3.30;0.80;;;;;;;;;;5037060;28;20206;-70
2022/08/09 14:10:37;;;;;;;4.97;0.70;;;;;;;;;;5038134;28;20209;-69
2022/08/09 14:13:06;;;;;;;1.10;0.90;;;;;;;;;;5039651;28;20205;-69
2022/08/09 14:15:33;;;;;;;2.08;0.68;;;;;;;;;;5037917;28;20205;-70
2022/08/09 14:17:59;;;;;;;3.15;0.90;;;;;;;;;;5037562;28;20204;-70
2022/08/09 14:20:27;;;;;;;0.88;0.63;;;;;;;;;;5047622;27;20205;-70
2022/08/09 14:22:54;;;;;;;2.60;0.90;;;;;;;;;;5095753;27;20244;-70
2022/08/09 14:25:21;;;;;;;1.70;0.65;;;;;;;;;;5038051;28;20510;-70
2022/08/09 14:27:47;;;;;;;1.25;0.70;;;;;;;;;;5037740;28;20212;-69
2022/08/09 14:30:14;;;;;;;0.70;0.70;;;;;;;;;;5038289;28;20209;-71
2022/08/09 14:32:40;;;;;;;0.77;0.70;;;;;;;;;;5038006;28;20205;-70
2022/08/09 14:35:07;;;;;;;0.98;0.80;;;;;;;;;;5037976;28;20251;-70
2022/08/09 14:37:33;;;;;;;5.88;0.90;;;;;;;;;;5037692;28;20613;-70
2022/08/09 14:39:59;;;;;;;0.85;0.65;;;;;;;;;;5039087;28;20197;-71
2022/08/09 14:42:27;;;;;;;0.80;0.80;;;;;;;;;;5040979;28;20266;-70
2022/08/09 14:44:53;;;;;;;1.42;0.60;;;;;;;;;;5041244;28;20502;-71
2022/08/09 14:47:20;;;;;;;0.80;0.70;;;;;;;;;;5040802;28;20200;-71